Time;durP1;ratioP1;P1;durP2;ratioP2;P2;SDS_P1;SDS_P2;PMS_P1;PMS_P2;Temp;Humidity;BMP_temperature;BMP_pressure;BME280_temperature;BME280_humidity;BME280_pressure;Samples;Min_cycle;Max_cycle;Signal;HPM_P1;HPM_P2
2021/05/14 00:00:27;;;;;;;12.38;10.70;;;12.70;89.60;;;;;;5031795;28;20411;-78
2021/05/14 00:02:53;;;;;;;14.00;10.90;;;12.70;90.60;;;;;;5031706;28;20400;-78
2021/05/14 00:05:19;;;;;;;13.82;11.50;;;12.60;90.80;;;;;;5033142;28;20474;-77
2021/05/14 00:07:45;;;;;;;14.52;10.95;;;12.60;93.00;;;;;;5033886;28;20831;-77
2021/05/14 00:10:12;;;;;;;17.73;11.68;;;12.80;88.20;;;;;;5033728;28;20387;-78
2021/05/14 00:12:38;;;;;;;18.98;13.25;;;12.70;90.50;;;;;;5033386;28;20387;-76
2021/05/14 00:15:05;;;;;;;16.77;13.10;;;12.60;93.80;;;;;;5033615;28;20395;-77
2021/05/14 00:17:30;;;;;;;16.20;12.30;;;12.50;95.40;;;;;;5033328;28;20396;-76
2021/05/14 00:19:56;;;;;;;15.70;12.13;;;12.50;97.20;;;;;;5033626;28;20460;-77
2021/05/14 00:22:21;;;;;;;17.83;13.95;;;12.40;98.60;;;;;;5033556;28;20387;-76
2021/05/14 00:24:47;;;;;;;17.05;13.50;;;12.40;99.50;;;;;;5031991;28;20399;-75
2021/05/14 00:27:14;;;;;;;15.68;12.85;;;12.40;99.90;;;;;;5032059;28;20387;-78
2021/05/14 00:29:40;;;;;;;16.88;13.27;;;12.40;99.90;;;;;;5033021;28;20851;-78
2021/05/14 00:32:06;;;;;;;15.25;12.23;;;12.30;99.90;;;;;;5032933;28;20387;-77
2021/05/14 00:34:31;;;;;;;15.70;12.45;;;12.30;99.90;;;;;;5031637;28;20434;-77
2021/05/14 00:36:57;;;;;;;15.95;12.30;;;12.40;99.90;;;;;;5033520;28;20398;-76
2021/05/14 00:39:22;;;;;;;16.17;12.02;;;12.30;99.90;;;;;;5032964;28;20902;-76
2021/05/14 00:41:48;;;;;;;15.20;11.77;;;12.30;99.90;;;;;;5032810;28;20444;-76
2021/05/14 00:44:31;;;;;;;16.37;12.07;;;12.20;97.80;;;;;;5032629;28;20441;-76
2021/05/14 00:47:04;;;;;;;16.60;12.80;;;12.10;98.80;;;;;;5032799;28;20383;-75
2021/05/14 00:49:30;;;;;;;18.05;13.05;;;12.00;99.30;;;;;;5032861;28;20383;-77
2021/05/14 00:51:57;;;;;;;15.68;11.38;;;11.90;99.70;;;;;;5032808;28;20445;-76
2021/05/14 00:54:24;;;;;;;15.50;12.77;;;11.80;99.80;;;;;;5032286;28;20862;-75
2021/05/14 00:56:50;;;;;;;16.20;11.50;;;11.70;99.90;;;;;;5032648;28;20414;-77
2021/05/14 00:59:16;;;;;;;14.20;12.40;;;11.70;99.90;;;;;;5032508;28;20403;-76
2021/05/14 01:01:42;;;;;;;16.77;12.90;;;11.70;99.90;;;;;;5031179;28;20523;-76
2021/05/14 01:04:08;;;;;;;17.00;12.83;;;11.80;99.90;;;;;;5032256;28;20474;-76
2021/05/14 01:06:33;;;;;;;19.73;12.73;;;11.60;99.90;;;;;;5032357;28;20382;-76
2021/05/14 01:09:00;;;;;;;17.10;12.60;;;11.50;99.90;;;;;;5032526;28;20450;-76
2021/05/14 01:11:26;;;;;;;17.08;12.90;;;11.40;99.90;;;;;;5032310;28;20394;-76
2021/05/14 01:13:52;;;;;;;15.48;12.90;;;11.40;99.90;;;;;;5032150;28;20379;-77
2021/05/14 01:16:17;;;;;;;19.50;13.00;;;11.30;99.90;;;;;;5032217;28;20899;-77
2021/05/14 01:18:43;;;;;;;18.88;13.98;;;11.20;99.90;;;;;;5032077;28;20891;-76
2021/05/14 01:21:08;;;;;;;17.67;13.40;;;11.20;99.90;;;;;;5032007;28;20383;-76
2021/05/14 01:23:34;;;;;;;17.87;14.40;;;11.30;99.90;;;;;;5030561;28;20387;-77
2021/05/14 01:26:00;;;;;;;16.60;13.40;;;11.30;99.90;;;;;;5030860;28;20891;-76
2021/05/14 01:28:26;;;;;;;17.27;13.77;;;11.30;99.90;;;;;;5031802;28;20465;-76
2021/05/14 01:30:53;;;;;;;19.70;14.63;;;11.20;99.90;;;;;;5031926;28;20472;-77
2021/05/14 01:33:19;;;;;;;21.90;15.50;;;11.20;99.90;;;;;;5030538;28;20522;-76
2021/05/14 01:35:45;;;;;;;17.83;14.90;;;11.20;99.90;;;;;;5031821;28;20466;-75
2021/05/14 01:38:11;;;;;;;19.23;14.83;;;11.10;99.90;;;;;;5032009;28;20387;-76
2021/05/14 01:40:37;;;;;;;22.38;15.18;;;11.10;99.90;;;;;;5032034;28;20875;-77
2021/05/14 01:43:03;;;;;;;18.00;14.90;;;11.10;99.90;;;;;;5031848;28;20391;-75
2021/05/14 01:45:29;;;;;;;18.85;14.30;;;11.00;99.90;;;;;;5030473;28;20448;-76
2021/05/14 01:47:55;;;;;;;21.15;15.77;;;11.00;99.90;;;;;;5031704;28;20383;-76
2021/05/14 01:50:21;;;;;;;17.00;14.60;;;11.00;99.90;;;;;;5031789;28;20387;-76
2021/05/14 01:52:47;;;;;;;17.73;13.70;;;11.10;99.90;;;;;;5031377;28;21008;-75
2021/05/14 01:55:13;;;;;;;19.83;14.83;;;11.10;99.90;;;;;;5031460;28;20387;-75
2021/05/14 01:57:39;;;;;;;16.27;13.52;;;11.20;99.90;;;;;;5031420;28;20482;-75
2021/05/14 02:00:07;;;;;;;27.23;17.67;;;11.20;99.90;;;;;;5030266;28;20839;-76
2021/05/14 02:02:33;;;;;;;22.17;15.82;;;11.30;99.90;;;;;;5031102;28;20395;-76
2021/05/14 02:04:58;;;;;;;16.45;13.20;;;11.20;99.90;;;;;;5031733;28;20394;-76
2021/05/14 02:07:24;;;;;;;17.50;13.20;;;11.20;99.90;;;;;;5031507;28;20391;-77
2021/05/14 02:09:52;;;;;;;17.27;13.80;;;11.10;99.90;;;;;;5031269;28;20474;-77
2021/05/14 02:12:17;;;;;;;17.87;13.00;;;11.10;99.90;;;;;;5029867;28;20406;-77
2021/05/14 02:14:43;;;;;;;19.00;13.10;;;11.20;99.90;;;;;;5031183;28;20815;-77
2021/05/14 02:17:08;;;;;;;19.20;12.33;;;11.40;99.90;;;;;;5031511;28;20387;-76
2021/05/14 02:19:34;;;;;;;15.83;12.90;;;11.50;98.20;;;;;;5031457;28;20403;-76
2021/05/14 02:22:00;;;;;;;14.20;12.13;;;11.60;95.40;;;;;;5031134;28;20393;-77
2021/05/14 02:24:25;;;;;;;16.80;12.52;;;11.70;93.50;;;;;;5029650;28;20387;-76
2021/05/14 02:26:51;;;;;;;14.32;11.82;;;11.70;92.40;;;;;;5029653;28;20470;-74
2021/05/14 02:29:16;;;;;;;15.27;12.50;;;11.60;92.90;;;;;;5030849;28;20537;-76
2021/05/14 02:31:42;;;;;;;14.13;12.20;;;11.60;93.20;;;;;;5031185;28;20994;-75
2021/05/14 02:34:07;;;;;;;14.77;12.40;;;11.70;90.80;;;;;;5030668;28;20387;-76
2021/05/14 02:36:33;;;;;;;15.00;12.57;;;11.80;90.00;;;;;;5031048;28;20387;-75
2021/05/14 02:38:59;;;;;;;17.10;13.83;;;11.70;90.50;;;;;;5031192;28;20573;-76
2021/05/14 02:41:24;;;;;;;18.60;14.00;;;11.70;90.30;;;;;;5031022;28;20386;-76
2021/05/14 02:43:50;;;;;;;16.15;13.60;;;11.70;92.80;;;;;;5030633;28;20462;-77
2021/05/14 02:46:15;;;;;;;17.67;15.10;;;11.40;94.40;;;;;;5031285;28;20783;-77
2021/05/14 02:48:41;;;;;;;19.42;14.52;;;11.10;97.10;;;;;;5030894;28;20379;-76
2021/05/14 02:51:07;;;;;;;21.50;15.17;;;11.00;99.90;;;;;;5030996;28;20402;-76
2021/05/14 02:53:33;;;;;;;20.92;15.77;;;11.00;99.90;;;;;;5030380;28;20449;-76
2021/05/14 02:55:58;;;;;;;17.38;14.30;;;10.90;99.90;;;;;;5030823;28;20391;-77
2021/05/14 02:58:24;;;;;;;19.50;15.30;;;10.90;99.90;;;;;;5030760;28;20444;-76
2021/05/14 03:00:50;;;;;;;27.70;15.10;;;10.80;99.90;;;;;;5029498;28;20436;-76
2021/05/14 03:03:15;;;;;;;22.83;15.73;;;10.60;99.90;;;;;;5030502;28;20403;-75
2021/05/14 03:05:41;;;;;;;22.88;15.02;;;10.60;99.90;;;;;;5030761;28;20379;-75
2021/05/14 03:08:06;;;;;;;21.63;14.82;;;10.60;99.90;;;;;;5030894;28;20390;-75
2021/05/14 03:10:32;;;;;;;17.40;14.13;;;10.70;99.90;;;;;;5030353;28;20383;-75
2021/05/14 03:12:58;;;;;;;51.67;18.40;;;10.80;99.90;;;;;;5030350;28;20413;-76
2021/05/14 03:15:23;;;;;;;28.90;15.50;;;10.70;99.90;;;;;;5030408;28;20450;-76
2021/05/14 03:17:49;;;;;;;22.27;15.77;;;10.50;99.90;;;;;;5030361;28;20745;-76
2021/05/14 03:20:15;;;;;;;21.37;16.17;;;10.40;99.90;;;;;;5030538;28;20883;-76
2021/05/14 03:22:40;;;;;;;20.73;15.60;;;10.40;99.90;;;;;;5030113;28;20383;-76
2021/05/14 03:25:10;;;;;;;19.45;15.25;;;10.30;99.90;;;;;;5030520;28;20383;-78
2021/05/14 03:27:36;;;;;;;19.73;14.80;;;10.40;99.90;;;;;;5030732;28;20391;-77
2021/05/14 03:30:02;;;;;;;22.40;15.75;;;10.40;99.90;;;;;;5032635;28;20378;-77
2021/05/14 03:32:27;;;;;;;19.73;15.48;;;10.20;99.90;;;;;;5031775;28;20791;-75
2021/05/14 03:34:53;;;;;;;18.67;15.02;;;10.10;99.90;;;;;;5031334;28;20394;-76
2021/05/14 03:37:18;;;;;;;24.13;15.32;;;10.20;99.90;;;;;;5031037;28;20458;-76
2021/05/14 03:39:47;;;;;;;22.45;15.35;;;10.20;99.90;;;;;;5033398;28;20921;-76
2021/05/14 03:42:23;;;;;;;28.00;15.30;;;10.20;99.90;;;;;;5034108;28;20471;-75
2021/05/14 03:44:49;;;;;;;22.63;14.30;;;10.30;99.90;;;;;;5033957;28;20373;-77
2021/05/14 03:47:16;;;;;;;20.88;13.88;;;10.30;99.90;;;;;;5034007;28;20382;-77
2021/05/14 03:49:42;;;;;;;20.35;13.50;;;10.40;99.90;;;;;;5033880;28;20878;-75
2021/05/14 03:52:10;;;;;;;17.52;12.65;;;10.40;99.90;;;;;;5033344;28;20534;-78
2021/05/14 03:54:36;;;;;;;21.85;13.02;;;10.60;99.90;;;;;;5043184;22;20583;-82
2021/05/14 03:57:02;;;;;;;20.48;13.05;;;10.60;99.90;;;;;;5026391;28;20389;-82
2021/05/14 03:59:27;;;;;;;18.55;11.60;;;10.60;99.90;;;;;;5024829;28;20418;-83
2021/05/14 04:01:53;;;;;;;17.90;11.80;;;10.60;99.90;;;;;;5027944;28;20416;-83
2021/05/14 04:04:20;;;;;;;19.47;12.30;;;10.70;99.90;;;;;;5032757;28;20385;-81
2021/05/14 04:06:46;;;;;;;19.73;12.57;;;10.70;99.90;;;;;;5029943;28;20431;-81
2021/05/14 04:09:12;;;;;;;17.42;11.80;;;10.70;99.90;;;;;;5016256;28;20388;-82
2021/05/14 04:16:48;;;;;;;11.93;10.50;;;10.70;99.90;;;;;;5014448;28;20388;-83
2021/05/14 04:19:13;;;;;;;17.98;11.98;;;10.80;99.90;;;;;;5025853;28;20905;-83
2021/05/14 04:21:40;;;;;;;21.20;12.05;;;10.80;99.90;;;;;;5028684;28;20396;-83
2021/05/14 04:24:06;;;;;;;15.60;11.40;;;10.90;99.90;;;;;;5018002;28;20384;-80
2021/05/14 04:26:32;;;;;;;16.83;11.10;;;10.90;99.90;;;;;;5019062;28;20412;-80
2021/05/14 04:28:58;;;;;;;16.48;11.35;;;11.20;99.70;;;;;;5029102;28;20377;-78
2021/05/14 04:31:24;;;;;;;12.07;10.68;;;11.10;97.00;;;;;;5062556;28;20719;-78
2021/05/14 04:33:49;;;;;;;15.85;11.70;;;11.10;96.50;;;;;;5023776;28;20443;-78
2021/05/14 04:36:15;;;;;;;22.97;14.57;;;11.20;96.30;;;;;;5025310;28;20392;-79
2021/05/14 04:38:40;;;;;;;15.73;11.40;;;11.20;96.50;;;;;;5017326;28;20472;-77
2021/05/14 04:41:06;;;;;;;16.37;10.70;;;11.30;96.10;;;;;;5015034;28;20766;-80
2021/05/14 04:43:32;;;;;;;15.10;11.17;;;11.30;95.10;;;;;;5013689;28;20960;-76
2021/05/14 04:45:57;;;;;;;17.53;10.90;;;11.20;95.00;;;;;;5004386;28;20393;-76
2021/05/14 04:48:23;;;;;;;14.00;11.17;;;11.20;94.90;;;;;;5011338;28;20397;-76
2021/05/14 04:50:49;;;;;;;18.60;11.40;;;11.30;95.00;;;;;;5009955;28;20400;-75
2021/05/14 04:53:15;;;;;;;18.33;11.07;;;11.30;94.80;;;;;;5010273;28;20397;-76
2021/05/14 04:55:41;;;;;;;15.90;10.98;;;11.40;94.60;;;;;;5010433;28;20401;-76
2021/05/14 04:58:07;;;;;;;12.60;10.02;;;11.40;93.10;;;;;;5011076;28;20899;-77
2021/05/14 05:00:33;;;;;;;12.40;10.25;;;11.50;90.90;;;;;;5010689;28;20459;-75
2021/05/14 05:03:00;;;;;;;15.00;10.65;;;11.60;90.50;;;;;;5011597;28;20864;-77
2021/05/14 05:05:26;;;;;;;17.15;11.00;;;11.60;89.80;;;;;;5013198;28;20726;-74
2021/05/14 05:07:52;;;;;;;15.70;11.10;;;11.70;89.90;;;;;;5009701;28;20403;-75
2021/05/14 05:10:20;;;;;;;14.87;10.90;;;11.90;88.80;;;;;;5002703;28;20420;-75
2021/05/14 05:12:45;;;;;;;15.85;11.00;;;11.90;86.40;;;;;;5011470;28;20403;-76
2021/05/14 05:15:11;;;;;;;16.20;10.50;;;11.90;86.00;;;;;;5014611;28;20479;-76
2021/05/14 05:17:38;;;;;;;18.50;11.10;;;12.10;84.50;;;;;;5007025;28;20569;-75
2021/05/14 05:20:05;;;;;;;13.52;11.10;;;12.20;84.40;;;;;;4999187;28;20419;-77
2021/05/14 05:22:30;;;;;;;16.08;10.68;;;12.20;83.40;;;;;;5009081;28;20422;-77
2021/05/14 05:24:56;;;;;;;12.53;10.13;;;12.30;83.40;;;;;;4996965;28;20388;-77
2021/05/14 05:27:22;;;;;;;20.00;11.90;;;12.40;81.70;;;;;;5009951;28;20389;-77
2021/05/14 05:29:47;;;;;;;14.83;10.80;;;12.40;80.20;;;;;;4997302;28;20934;-76
2021/05/14 05:32:13;;;;;;;14.10;10.43;;;12.50;79.80;;;;;;5011141;28;20389;-77
2021/05/14 05:34:38;;;;;;;14.05;10.20;;;12.60;78.60;;;;;;4992779;28;20395;-76
2021/05/14 05:37:04;;;;;;;14.70;11.50;;;12.70;77.50;;;;;;5012428;28;20475;-77
2021/05/14 05:39:29;;;;;;;12.23;10.30;;;12.80;77.00;;;;;;5011754;28;20416;-77
2021/05/14 05:41:55;;;;;;;17.13;12.87;;;12.90;73.90;;;;;;4994169;28;20402;-76
2021/05/14 05:44:20;;;;;;;15.40;10.93;;;13.00;72.90;;;;;;5001596;28;20864;-78
2021/05/14 05:46:46;;;;;;;16.20;10.05;;;13.10;71.40;;;;;;4994432;28;20713;-76
2021/05/14 05:49:12;;;;;;;13.23;10.30;;;13.20;70.40;;;;;;5003978;28;20754;-76
2021/05/14 05:51:37;;;;;;;12.17;9.50;;;13.30;68.60;;;;;;5012082;28;20396;-75
2021/05/14 05:54:04;;;;;;;15.13;9.90;;;13.40;67.90;;;;;;5006690;28;20420;-77
2021/05/14 05:56:29;;;;;;;15.70;11.27;;;13.60;63.90;;;;;;5011719;28;20420;-76
2021/05/14 05:58:55;;;;;;;13.52;9.55;;;13.60;63.70;;;;;;5013040;28;20404;-77
2021/05/14 06:01:21;;;;;;;16.07;10.33;;;13.70;64.00;;;;;;5012028;28;20393;-77
2021/05/14 06:03:48;;;;;;;14.00;9.17;;;13.70;63.00;;;;;;5011481;28;20392;-77
2021/05/14 06:06:14;;;;;;;16.23;10.30;;;14.00;59.70;;;;;;5012309;28;20381;-76
2021/05/14 06:08:39;;;;;;;15.82;9.85;;;14.10;59.10;;;;;;5012090;28;20395;-76
2021/05/14 06:11:05;;;;;;;16.02;10.32;;;14.20;59.00;;;;;;5010822;28;20393;-77
2021/05/14 06:13:33;;;;;;;12.47;9.90;;;14.30;58.90;;;;;;5012072;28;20381;-77
2021/05/14 06:15:59;;;;;;;12.57;9.65;;;14.40;58.30;;;;;;5005556;28;20398;-77
2021/05/14 06:18:27;;;;;;;12.30;9.90;;;14.40;51.90;;;;;;4993703;28;20398;-75
2021/05/14 06:20:54;;;;;;;13.18;9.77;;;14.40;50.10;;;;;;4997806;28;20457;-77
2021/05/14 06:23:19;;;;;;;14.48;10.90;;;14.50;50.20;;;;;;5010938;28;20943;-77
2021/05/14 06:25:45;;;;;;;15.00;10.55;;;14.60;50.50;;;;;;5007863;28;20410;-75
2021/05/14 06:28:23;;;;;;;12.73;8.63;;;14.70;50.30;;;;;;5004241;28;20408;-75
2021/05/14 06:30:49;;;;;;;12.30;8.75;;;15.00;43.10;;;;;;5003477;28;20399;-76
2021/05/14 06:33:15;;;;;;;12.63;8.50;;;15.30;38.50;;;;;;5002729;28;20418;-75
2021/05/14 06:35:42;;;;;;;13.40;10.20;;;15.70;36.40;;;;;;5008582;28;20631;-75
2021/05/14 06:38:07;;;;;;;14.43;9.95;;;15.50;38.50;;;;;;5011682;28;20442;-76
2021/05/14 06:40:33;;;;;;;14.98;10.02;;;15.20;40.20;;;;;;5012592;28;20416;-75
2021/05/14 06:42:59;;;;;;;14.80;8.80;;;15.30;39.60;;;;;;5009921;28;20405;-74
2021/05/14 06:45:25;;;;;;;13.63;9.10;;;15.50;37.90;;;;;;5010530;28;20397;-74
2021/05/14 06:47:50;;;;;;;12.63;8.30;;;15.20;35.70;;;;;;5010364;28;20408;-75
2021/05/14 06:50:16;;;;;;;13.43;8.60;;;15.20;35.10;;;;;;5012479;28;20405;-79
2021/05/14 06:52:41;;;;;;;16.57;8.70;;;15.10;35.00;;;;;;5012380;28;20793;-79
2021/05/14 06:55:09;;;;;;;13.77;7.90;;;15.00;34.50;;;;;;5013711;28;20403;-80
2021/05/14 06:57:36;;;;;;;13.82;7.70;;;15.00;34.90;;;;;;5012201;28;20451;-79
2021/05/14 07:00:04;;;;;;;12.93;7.80;;;14.90;37.00;;;;;;4999176;28;20453;-80
2021/05/14 07:02:29;;;;;;;12.43;7.53;;;14.90;35.30;;;;;;4997377;28;20397;-80
2021/05/14 07:04:55;;;;;;;10.75;7.20;;;14.90;35.00;;;;;;5009442;28;20409;-76
2021/05/14 07:07:21;;;;;;;10.77;7.20;;;15.00;33.40;;;;;;5010904;28;20541;-76
2021/05/14 07:09:46;;;;;;;13.18;7.70;;;15.20;32.90;;;;;;5010207;28;20400;-77
2021/05/14 07:12:13;;;;;;;14.48;7.15;;;15.30;32.30;;;;;;5015686;28;20947;-80
2021/05/14 07:14:39;;;;;;;14.77;7.65;;;15.50;32.30;;;;;;5013863;28;20491;-79
2021/05/14 07:17:14;;;;;;;16.10;8.30;;;15.60;32.00;;;;;;5008326;28;20951;-83
2021/05/14 07:19:40;;;;;;;13.60;7.07;;;15.70;32.00;;;;;;5008391;28;20416;-83
2021/05/14 07:22:06;;;;;;;14.85;7.53;;;15.70;30.50;;;;;;5021496;28;20906;-84
2021/05/14 07:24:32;;;;;;;15.13;7.40;;;15.90;29.40;;;;;;5013632;28;20411;-81
2021/05/14 07:26:58;;;;;;;13.05;6.80;;;16.00;28.70;;;;;;5013736;28;20413;-82
2021/05/14 07:29:24;;;;;;;11.60;6.90;;;16.10;26.40;;;;;;5001863;28;20406;-81
2021/05/14 07:31:50;;;;;;;13.68;7.53;;;16.30;26.20;;;;;;5020673;28;20935;-82
2021/05/14 07:34:16;;;;;;;13.68;6.97;;;16.30;27.10;;;;;;5015373;28;20400;-81
2021/05/14 07:36:41;;;;;;;10.60;6.40;;;16.40;25.80;;;;;;5020524;28;20412;-81
2021/05/14 07:39:07;;;;;;;14.03;7.73;;;16.40;25.60;;;;;;5028894;28;20447;-79
2021/05/14 07:41:33;;;;;;;11.33;7.03;;;16.40;26.90;;;;;;5028698;28;20466;-81
2021/05/14 07:43:58;;;;;;;12.20;6.30;;;16.80;26.70;;;;;;5023039;28;20438;-80
2021/05/14 07:46:24;;;;;;;8.95;6.05;;;17.10;24.50;;;;;;5020929;28;20861;-79
2021/05/14 07:48:50;;;;;;;12.52;6.68;;;17.00;25.30;;;;;;5028004;28;20876;-78
2021/05/14 07:51:15;;;;;;;9.13;6.00;;;17.00;26.70;;;;;;5019275;28;20407;-79
2021/05/14 07:53:41;;;;;;;8.70;5.97;;;16.50;26.10;;;;;;5014893;28;20537;-80
2021/05/14 07:56:08;;;;;;;10.73;6.50;;;16.30;28.80;;;;;;5015996;28;20392;-81
2021/05/14 07:58:34;;;;;;;8.07;6.20;;;16.30;29.50;;;;;;5017482;28;20400;-81
2021/05/14 08:01:00;;;;;;;10.90;7.00;;;16.50;29.10;;;;;;5004489;28;20405;-78
2021/05/14 08:03:25;;;;;;;11.13;6.85;;;16.80;26.40;;;;;;5009112;28;20396;-83
2021/05/14 08:05:51;;;;;;;8.93;6.20;;;16.90;25.50;;;;;;5018527;28;20800;-81
2021/05/14 08:08:19;;;;;;;9.20;6.17;;;17.30;24.00;;;;;;5025010;28;20400;-79
2021/05/14 08:10:45;;;;;;;7.40;5.90;;;17.40;22.80;;;;;;5032092;28;20802;-75
2021/05/14 08:13:11;;;;;;;13.43;6.50;;;17.30;23.20;;;;;;5016373;28;20404;-82
2021/05/14 08:15:39;;;;;;;8.65;5.82;;;17.30;23.80;;;;;;5021384;28;20396;-86
2021/05/14 08:18:05;;;;;;;8.30;6.20;;;17.30;22.30;;;;;;5030882;28;20397;-84
2021/05/14 08:20:31;;;;;;;8.55;6.15;;;17.30;22.90;;;;;;5024347;28;20761;-79
2021/05/14 08:22:57;;;;;;;11.50;7.10;;;17.10;22.50;;;;;;5024202;28;20406;-79
2021/05/14 08:25:22;;;;;;;8.50;6.50;;;17.00;23.70;;;;;;5003776;28;20461;-81
2021/05/14 08:27:48;;;;;;;12.27;5.50;;;17.10;24.10;;;;;;5032025;28;20404;-81
2021/05/14 08:30:14;;;;;;;8.60;5.95;;;17.20;22.80;;;;;;5038185;28;20809;-75
2021/05/14 08:32:40;;;;;;;9.32;5.90;;;17.00;22.60;;;;;;5020028;28;20435;-78
2021/05/14 08:35:07;;;;;;;11.85;6.25;;;16.70;23.90;;;;;;5027177;28;20403;-79
2021/05/14 08:37:33;;;;;;;10.07;5.80;;;16.80;24.40;;;;;;5044109;28;20431;-79
2021/05/14 08:39:59;;;;;;;9.30;5.70;;;16.80;22.00;;;;;;5018367;28;20417;-79
2021/05/14 08:42:25;;;;;;;10.23;5.63;;;16.70;22.90;;;;;;5024683;28;20472;-79
2021/05/14 08:44:50;;;;;;;6.50;4.55;;;16.90;22.90;;;;;;5001450;28;20462;-80
2021/05/14 08:47:17;;;;;;;8.67;5.00;;;17.10;18.90;;;;;;5018051;28;20472;-79
2021/05/14 08:49:46;;;;;;;7.35;5.10;;;17.10;18.30;;;;;;5031724;28;20458;-82
2021/05/14 08:52:14;;;;;;;6.27;4.73;;;17.30;19.50;;;;;;5020530;28;20400;-78
2021/05/14 08:54:44;;;;;;;10.60;4.75;;;17.50;19.10;;;;;;5014571;28;20496;-83
2021/05/14 08:57:10;;;;;;;8.45;4.70;;;17.70;18.70;;;;;;5036146;28;20457;-77
2021/05/14 08:59:36;;;;;;;6.23;5.30;;;17.80;18.30;;;;;;5007848;28;20419;-74
2021/05/14 09:02:01;;;;;;;7.53;5.20;;;17.80;17.60;;;;;;5008502;28;20405;-74
2021/05/14 09:04:31;;;;;;;6.80;5.10;;;18.00;16.60;;;;;;5009916;28;20435;-73
2021/05/14 09:06:56;;;;;;;5.65;5.00;;;18.40;15.70;;;;;;5002895;28;20442;-75
2021/05/14 09:09:22;;;;;;;6.53;4.50;;;18.30;16.80;;;;;;5293272;22;20446;-76
2021/05/14 09:11:51;;;;;;;8.53;4.60;;;18.30;15.00;;;;;;5051438;28;20727;-75
2021/05/14 09:14:46;;;;;;;6.47;4.43;;;18.60;14.40;;;;;;5032457;28;20399;-76
2021/05/14 09:17:18;;;;;;;10.88;4.80;;;18.70;13.80;;;;;;5026676;28;20965;-75
2021/05/14 09:19:46;;;;;;;4.75;4.35;;;19.00;13.80;;;;;;5030624;28;20411;-74
2021/05/14 09:24:42;;;;;;;5.20;3.70;;;18.90;13.00;;;;;;5012719;28;20494;-74
2021/05/14 09:27:32;;;;;;;6.95;4.90;;;19.10;13.40;;;;;;5010605;28;20769;-73
2021/05/14 09:29:58;;;;;;;6.60;4.80;;;19.10;12.60;;;;;;5011487;28;20397;-76
2021/05/14 09:32:31;;;;;;;8.70;4.60;;;19.20;12.30;;;;;;5015049;28;20424;-74
2021/05/14 09:34:59;;;;;;;7.18;4.32;;;19.20;12.50;;;;;;5032008;28;20402;-76
2021/05/14 09:37:25;;;;;;;6.57;3.83;;;19.10;11.80;;;;;;5029531;28;20398;-74
2021/05/14 09:40:23;;;;;;;6.03;3.88;;;18.70;12.50;;;;;;5033716;28;20414;-77
2021/05/14 09:42:57;;;;;;;5.25;4.18;;;18.50;12.30;;;;;;5029535;28;20393;-78
2021/05/14 09:45:26;;;;;;;6.57;3.70;;;18.70;11.70;;;;;;5039411;28;21635;-79
2021/05/14 09:48:14;;;;;;;7.30;4.63;;;18.80;13.00;;;;;;5038078;28;20449;-79
2021/05/14 09:50:39;;;;;;;8.00;4.57;;;18.80;12.30;;;;;;5032264;28;20479;-79
2021/05/14 09:53:16;;;;;;;7.85;4.30;;;19.00;12.50;;;;;;5035090;28;20424;-79
2021/05/14 09:55:49;;;;;;;8.65;4.25;;;18.90;12.40;;;;;;5034444;28;20427;-76
2021/05/14 09:58:25;;;;;;;7.15;3.53;;;18.70;11.70;;;;;;5032522;28;20386;-78
2021/05/14 10:00:52;;;;;;;7.50;3.92;;;18.40;12.60;;;;;;5033733;28;20386;-76
2021/05/14 10:03:20;;;;;;;6.70;3.70;;;18.20;13.30;;;;;;5025196;28;20483;-76
2021/05/14 10:05:47;;;;;;;7.07;3.87;;;18.10;12.60;;;;;;5030323;28;20748;-76
2021/05/14 10:08:18;;;;;;;5.50;4.25;;;18.10;12.90;;;;;;5031939;28;20441;-77
2021/05/14 10:10:45;;;;;;;6.40;3.90;;;18.40;13.20;;;;;;5024254;28;20433;-77
2021/05/14 10:13:11;;;;;;;5.10;4.15;;;18.20;13.80;;;;;;5020459;28;20398;-77
2021/05/14 10:15:37;;;;;;;6.60;3.90;;;18.20;13.20;;;;;;5024858;28;20407;-76
2021/05/14 10:18:06;;;;;;;6.22;3.95;;;18.20;13.30;;;;;;5034012;28;20983;-78
2021/05/14 10:20:36;;;;;;;4.30;3.95;;;17.90;13.20;;;;;;5036551;28;20498;-79
2021/05/14 10:23:02;;;;;;;5.95;3.63;;;17.70;14.60;;;;;;5038633;28;20965;-78
2021/05/14 10:25:50;;;;;;;6.03;3.40;;;18.00;13.80;;;;;;5032464;28;20873;-78
2021/05/14 10:28:24;;;;;;;10.50;5.72;;;18.20;11.80;;;;;;5030972;28;20414;-78
2021/05/14 10:31:19;;;;;;;4.80;3.55;;;18.40;12.10;;;;;;5040529;28;20466;-79
2021/05/14 10:33:46;;;;;;;8.80;4.38;;;18.50;13.20;;;;;;5034045;28;20494;-78
2021/05/14 10:36:37;;;;;;;5.28;3.72;;;18.00;13.40;;;;;;5033709;28;20387;-78
2021/05/14 10:39:41;;;;;;;5.60;3.90;;;17.90;13.50;;;;;;5041500;28;20451;-77
2021/05/14 10:42:13;;;;;;;6.88;3.47;;;17.90;13.00;;;;;;5018827;28;20422;-78
2021/05/14 10:44:49;;;;;;;5.57;3.65;;;18.40;13.30;;;;;;5032466;28;20401;-74
2021/05/14 10:47:24;;;;;;;8.47;4.43;;;18.20;12.50;;;;;;5029249;28;20394;-75
2021/05/14 10:50:05;;;;;;;4.60;4.10;;;18.30;13.40;;;;;;5029515;28;20582;-74
2021/05/14 10:52:33;;;;;;;3.85;3.40;;;18.70;12.20;;;;;;5030667;28;20402;-75
2021/05/14 10:54:59;;;;;;;7.30;3.67;;;19.10;11.50;;;;;;5030125;28;20399;-75
2021/05/14 10:57:54;;;;;;;5.63;3.90;;;19.40;10.00;;;;;;5031178;28;20391;-74
2021/05/14 11:00:22;;;;;;;7.60;3.50;;;19.90;9.50;;;;;;5002084;28;20515;-76
2021/05/14 11:03:10;;;;;;;9.30;3.90;;;20.10;9.60;;;;;;5026307;28;20395;-76
2021/05/14 11:05:41;;;;;;;4.68;3.65;;;20.10;9.30;;;;;;5030194;28;20390;-75
2021/05/14 11:08:10;;;;;;;5.95;4.05;;;20.30;8.60;;;;;;5026887;28;20395;-74
2021/05/14 11:10:37;;;;;;;4.85;3.67;;;20.50;8.70;;;;;;5030548;28;20430;-75
2021/05/14 11:13:34;;;;;;;7.15;4.45;;;21.00;7.90;;;;;;5030506;28;20437;-75
2021/05/14 11:16:41;;;;;;;8.07;4.60;;;21.10;7.50;;;;;;5028650;28;20953;-74
2021/05/14 11:19:26;;;;;;;5.33;4.23;;;20.80;7.40;;;;;;5029488;28;20399;-75
2021/05/14 11:22:03;;;;;;;7.10;4.70;;;20.90;8.30;;;;;;5029096;28;20410;-76
2021/05/14 11:24:34;;;;;;;7.05;4.20;;;21.20;7.50;;;;;;5031770;28;20421;-75
2021/05/14 11:27:08;;;;;;;3.40;3.10;;;21.50;7.40;;;;;;5027893;28;20391;-75
2021/05/14 11:29:42;;;;;;;4.18;3.35;;;21.60;6.40;;;;;;5030699;28;20949;-75
2021/05/14 11:32:24;;;;;;;3.90;3.50;;;21.80;5.90;;;;;;5029986;28;20411;-75
2021/05/14 11:35:17;;;;;;;6.30;3.40;;;21.90;5.00;;;;;;5009224;28;20896;-74
2021/05/14 11:37:55;;;;;;;4.05;3.20;;;21.50;6.10;;;;;;5008825;28;20388;-75
2021/05/14 11:40:39;;;;;;;4.15;3.33;;;21.50;6.40;;;;;;5028509;28;20411;-76
2021/05/14 11:43:11;;;;;;;5.47;3.20;;;21.80;6.10;;;;;;5031982;28;20395;-76
2021/05/14 11:45:39;;;;;;;4.57;3.40;;;21.70;5.30;;;;;;5031186;28;20421;-76
2021/05/14 11:48:21;;;;;;;5.53;3.90;;;21.60;6.30;;;;;;5030724;28;20415;-76
2021/05/14 11:50:53;;;;;;;7.53;4.38;;;20.90;6.60;;;;;;5030739;28;20737;-77
2021/05/14 11:53:20;;;;;;;8.63;4.30;;;20.10;8.70;;;;;;5029737;28;20543;-77
2021/05/14 11:55:47;;;;;;;4.80;3.80;;;20.20;9.50;;;;;;5031740;28;20431;-76
2021/05/14 11:58:13;;;;;;;4.75;3.90;;;20.40;8.70;;;;;;5030886;28;20477;-76
2021/05/14 12:00:42;;;;;;;5.30;4.20;;;20.10;8.80;;;;;;5035313;28;20582;-78
2021/05/14 12:03:13;;;;;;;4.73;4.10;;;20.00;8.70;;;;;;5036124;28;20448;-77
2021/05/14 12:05:43;;;;;;;5.95;3.30;;;20.00;8.00;;;;;;5034640;28;20402;-77
2021/05/14 12:08:23;;;;;;;6.47;3.63;;;19.90;8.50;;;;;;5035278;28;20391;-79
2021/05/14 12:10:55;;;;;;;5.30;3.00;;;19.60;7.60;;;;;;5039637;28;20470;-78
2021/05/14 12:13:32;;;;;;;3.92;2.80;;;19.60;7.70;;;;;;5035620;28;20391;-78
2021/05/14 12:16:04;;;;;;;3.17;2.40;;;19.40;8.50;;;;;;5042727;28;20406;-77
2021/05/14 12:18:33;;;;;;;2.25;1.90;;;19.40;8.00;;;;;;5048668;28;20425;-73
2021/05/14 12:21:00;;;;;;;5.10;2.50;;;18.90;7.30;;;;;;5044999;28;20403;-76
2021/05/14 12:23:27;;;;;;;4.47;2.90;;;18.90;8.10;;;;;;5048950;28;20399;-78
2021/05/14 12:26:06;;;;;;;4.78;2.33;;;19.10;8.20;;;;;;5051589;28;20414;-78
2021/05/14 12:28:31;;;;;;;2.92;2.40;;;19.40;8.30;;;;;;5041809;28;20395;-78
2021/05/14 12:30:57;;;;;;;2.67;2.30;;;19.80;7.90;;;;;;5044095;28;20422;-77
2021/05/14 12:33:23;;;;;;;3.60;2.20;;;20.20;7.30;;;;;;5042727;28;20383;-78
2021/05/14 12:36:00;;;;;;;4.82;2.40;;;20.50;9.70;;;;;;5047206;28;20395;-79
2021/05/14 12:38:43;;;;;;;2.97;2.60;;;20.50;12.00;;;;;;5045595;28;20479;-77
2021/05/14 12:41:23;;;;;;;5.25;2.80;;;20.30;12.50;;;;;;5041097;28;20465;-78
2021/05/14 12:43:49;;;;;;;6.78;3.05;;;20.50;12.80;;;;;;5038736;28;20375;-77
2021/05/14 12:46:15;;;;;;;4.68;2.55;;;20.50;12.30;;;;;;5042497;28;20405;-78
2021/05/14 12:48:41;;;;;;;4.30;2.50;;;20.60;11.80;;;;;;5039942;28;20538;-78